Pagrindinis puslapis
METAR-TAF:

METAR-TAF

Oro uostai :

Saint Paul Island, Aliaska, Jungtinės Amerikos Valstijos

platuma: 57-10N, ilguma: 170-13W, Aukštis: 19 m

Dabartinis oras

Ataskaita buvo paskelbta 1 valandą ir 3 minutes, ne 21:53 UTC
Vėjas 3 kt nuo kintamojo kryptimis
Temperatūra 9°C
Drėgmė 81%
Slėgis 1020 hPa
Matomumas: 8.0 km
Apsiniaukę ne aukštis 800 ft
migla

METAR: PASN 052153Z AUTO VRB03KT 5SM HZ OVC008 09/06 A3011 RMK CIG 006V010 SLP196 T00890061 PWINO TSNO $ VIA AUTODIAL

Laikas: 14:56 (22:56 UTC)

Prognozė

Ataskaita buvo paskelbta 5 valandos ir 19 minutes, ne 17:37 UTC
Prognozė galioja nuo 05 metu 18 UTC su 06 metu 18 UTC
Vėjas 6 kt iš Pietų/Pietvakarių
Matomumas: 1.6 km
Apsiniaukę ne aukštis 400 ft
rūkana
Nuo 05 metu 2200 UTC
Vėjas 7 kt iš Vakarų
Matomumas: 10 km
Apsiniaukę ne aukštis 700 ft
Nuo 06 metu 1100 UTC
Vėjas 5 kt nuo kintamojo kryptimis
Matomumas: 4.8 km
Apsiniaukę ne aukštis 400 ft
rūkana

TAF: PASN 051737Z 0518/0618 20006KT 1SM BR OVC004 FM052200 27007KT P6SM OVC007 FM061100 VRB05KT 3SM BR OVC004

Orai ataskaitas ir orų prognozės (METAR, TAF).

turimą stotys yra geltonos ir raudonos taškus žemėlapyje.

Perkelti pele per norėdami pamatyti stoties vardą.

Tada spustelėkite, norėdami matyti oro stebėjimo ir prognozės.

Norėdami pakeisti žemėlapį: spustelėkite ant žalios mygtukų su juodo kryžiaus žemyn,; žalią mygtuką su brūkšneliu, jei norite nutolinti; arba žalių rodyklių gretimoms žemėlapius.


METAR-TAF: